ADDS TAF Data INFO
IDs: Format: Raw Decoded Include METARs

Data at: 0328 UTC 17 Jul 2018

KINW 170256Z AUTO 19010KT 10SM FEW120 24/17 A3015 RMK AO2 SLP132 60010 T02440172 53004

KINW 162320Z 1700/1724 VRB06KT P6SM SCT080
  TEMPO 1700/1702 VRB10G20KT 5SM TSRA BKN050CB
  FM170200 VRB05KT P6SM SCT060 BKN120
  TEMPO 1719/1723 VRB10G20KT 5SM TSRA BKN050CB